createdAt,value
2023-01-17T00:02:18.475Z,3.32
2023-01-17T00:07:30.853Z,3.40
2023-01-17T00:12:29.221Z,2.33
2023-01-17T00:17:22.695Z,3.29
2023-01-17T00:22:42.170Z,3.11
2023-01-17T00:27:33.693Z,2.84
2023-01-17T00:32:25.266Z,3.31
2023-01-17T00:37:16.731Z,3.09
2023-01-17T00:42:08.245Z,3.39
2023-01-17T00:47:18.736Z,3.33
2023-01-17T00:52:29.109Z,3.29
2023-01-17T00:57:39.307Z,3.35
2023-01-17T01:02:49.915Z,3.35
2023-01-17T01:08:00.107Z,3.73
2023-01-17T01:13:10.521Z,3.41
2023-01-17T01:18:30.046Z,3.78
2023-01-17T01:23:40.269Z,3.41
2023-01-17T01:28:50.431Z,3.59
2023-01-17T01:33:42.029Z,3.77
2023-01-17T01:38:33.581Z,3.46
2023-01-17T01:43:49.510Z,3.50
2023-01-17T01:48:44.094Z,3.26
2023-01-17T01:53:38.651Z,3.12
2023-01-17T01:58:34.058Z,2.45
2023-01-17T02:03:31.882Z,3.55
2023-01-17T02:08:24.185Z,3.64
2023-01-17T02:13:19.537Z,3.26
2023-01-17T02:18:16.211Z,3.77
2023-01-17T02:23:54.384Z,3.32
2023-01-17T02:28:58.139Z,3.30
2023-01-17T02:33:59.043Z,3.25
2023-01-17T02:39:04.265Z,3.42
2023-01-17T02:43:55.901Z,2.90
2023-01-17T02:48:48.118Z,3.38
2023-01-17T02:53:51.774Z,3.65
2023-01-17T02:58:58.464Z,3.62
2023-01-17T03:04:02.826Z,3.64
2023-01-17T03:08:55.565Z,2.83
2023-01-17T03:13:47.115Z,3.61
2023-01-17T03:18:38.733Z,3.10
2023-01-17T03:23:30.295Z,3.55
2023-01-17T03:28:21.890Z,3.11
2023-01-17T03:33:13.560Z,3.08
2023-01-17T03:38:05.572Z,1.89
2023-01-17T03:42:57.096Z,3.54
2023-01-17T03:47:48.671Z,3.42
2023-01-17T03:52:40.272Z,3.17
2023-01-17T03:57:31.873Z,3.34
2023-01-17T04:02:24.793Z,2.54
2023-01-17T04:07:16.434Z,2.48
2023-01-17T04:12:09.526Z,2.85
2023-01-17T04:17:01.477Z,2.14
2023-01-17T04:21:53.087Z,2.80
2023-01-17T04:26:44.746Z,3.13
2023-01-17T04:31:36.771Z,2.58
2023-01-17T04:36:28.423Z,2.40
2023-01-17T04:41:20.239Z,2.92
2023-01-17T04:46:12.468Z,2.15
2023-01-17T04:51:05.535Z,2.26
2023-01-17T04:55:57.469Z,2.56
2023-01-17T05:00:50.992Z,2.68
2023-01-17T05:05:43.797Z,3.02
2023-01-17T05:10:35.440Z,2.17
2023-01-17T05:15:27.800Z,3.00
2023-01-17T05:20:20.681Z,3.09
2023-01-17T05:25:12.266Z,2.67
2023-01-17T05:30:04.648Z,2.47
2023-01-17T05:34:56.441Z,3.01
2023-01-17T05:39:48.005Z,2.98
2023-01-17T05:44:39.633Z,2.43
2023-01-17T05:49:31.271Z,2.47
2023-01-17T05:54:22.825Z,2.40
2023-01-17T05:59:14.533Z,2.19
2023-01-17T06:04:06.381Z,2.57
2023-01-17T06:08:58.061Z,2.39
2023-01-17T06:13:49.690Z,2.21
2023-01-17T06:18:41.275Z,1.16
2023-01-17T06:23:32.981Z,1.52
2023-01-17T06:28:24.606Z,1.67
2023-01-17T06:33:16.340Z,1.57
2023-01-17T06:38:09.920Z,1.11
2023-01-17T06:43:02.959Z,1.40
2023-01-17T06:47:54.501Z,0.58
2023-01-17T06:53:01.255Z,0.80
2023-01-17T06:57:54.546Z,0.51
2023-01-17T07:02:49.372Z,-0.32
2023-01-17T07:07:40.872Z,0.40
2023-01-17T07:12:32.457Z,0.69
2023-01-17T07:17:24.023Z,0.20
2023-01-17T07:22:15.555Z,0.45
2023-01-17T07:27:07.579Z,0.63
2023-01-17T07:31:59.090Z,0.33
2023-01-17T07:36:50.693Z,0.85
2023-01-17T07:41:42.905Z,1.51
2023-01-17T07:46:35.623Z,1.57
2023-01-17T07:51:27.236Z,1.78
2023-01-17T07:56:18.855Z,1.58
2023-01-17T08:01:13.879Z,1.70
2023-01-17T08:06:07.714Z,1.00
2023-01-17T08:10:59.346Z,1.71
2023-01-17T08:15:51.884Z,1.53
2023-01-17T08:20:44.551Z,1.36
2023-01-17T08:25:36.500Z,1.69
2023-01-17T08:30:28.291Z,2.67
2023-01-17T08:35:20.690Z,3.73
2023-01-17T08:40:17.163Z,3.64
2023-01-17T08:45:09.908Z,4.01
2023-01-17T08:50:01.592Z,4.95
2023-01-17T08:54:56.320Z,5.50
2023-01-17T08:59:48.231Z,5.75
2023-01-17T09:04:39.911Z,6.62
2023-01-17T09:09:31.784Z,6.82
2023-01-17T09:14:23.358Z,6.94
2023-01-17T09:19:15.001Z,7.17
2023-01-17T09:24:06.728Z,6.69
2023-01-17T09:28:58.698Z,7.23
2023-01-17T09:33:52.022Z,7.31
2023-01-17T09:38:43.830Z,7.61
2023-01-17T09:43:49.468Z,7.39
2023-01-17T09:48:43.766Z,6.94
2023-01-17T09:53:39.035Z,6.62
2023-01-17T09:58:59.614Z,6.01
2023-01-17T10:03:57.292Z,5.84
2023-01-17T10:08:57.880Z,5.82
2023-01-17T10:14:05.751Z,5.49
2023-01-17T10:18:57.307Z,6.07
2023-01-17T10:24:26.472Z,6.19
2023-01-17T10:29:21.076Z,6.31
2023-01-17T10:34:23.207Z,5.93
2023-01-17T10:39:21.738Z,5.83
2023-01-17T10:44:32.156Z,6.40
2023-01-17T10:49:26.210Z,6.75
2023-01-17T10:55:04.048Z,6.38
2023-01-17T11:00:01.181Z,6.30
2023-01-17T11:04:55.615Z,6.72
2023-01-17T11:09:53.302Z,7.41
2023-01-17T11:15:06.509Z,7.16
2023-01-17T11:20:08.651Z,6.90
2023-01-17T11:25:01.251Z,6.83
2023-01-17T11:30:16.397Z,6.43
2023-01-17T11:35:27.971Z,5.97
2023-01-17T11:40:25.462Z,5.78
2023-01-17T11:45:33.681Z,4.97
2023-01-17T11:50:26.543Z,5.30
2023-01-17T11:55:18.269Z,5.22
2023-01-17T12:00:24.000Z,5.39
2023-01-17T12:05:42.826Z,6.25
2023-01-17T12:11:02.424Z,6.55
2023-01-17T12:16:28.513Z,5.83
2023-01-17T12:21:36.663Z,5.79
2023-01-17T12:26:42.351Z,6.53
2023-01-17T12:31:49.664Z,6.61
2023-01-17T12:36:49.374Z,6.19
2023-01-17T12:41:47.065Z,6.28
2023-01-17T12:46:49.452Z,5.91
2023-01-17T12:51:44.315Z,5.87
2023-01-17T12:56:43.604Z,5.97
2023-01-17T13:01:43.275Z,5.79
2023-01-17T13:06:54.843Z,5.80
2023-01-17T13:11:51.996Z,5.26
2023-01-17T13:16:57.964Z,5.56
2023-01-17T13:21:50.501Z,5.34
2023-01-17T13:27:06.876Z,5.22
2023-01-17T13:32:36.399Z,4.35
2023-01-17T13:37:37.362Z,5.08
2023-01-17T13:42:53.151Z,5.03
2023-01-17T13:47:44.727Z,4.86
2023-01-17T13:52:37.011Z,5.01
2023-01-17T13:57:48.941Z,5.07
2023-01-17T14:02:42.168Z,4.77
2023-01-17T14:07:37.968Z,4.81
2023-01-17T14:12:33.123Z,4.63
2023-01-17T14:17:34.950Z,4.52
2023-01-17T14:22:35.359Z,4.52
2023-01-17T14:27:30.405Z,3.44
2023-01-17T14:32:27.055Z,3.78
2023-01-17T14:37:27.243Z,4.16
2023-01-17T14:42:22.923Z,3.07
2023-01-17T14:47:16.034Z,4.06
2023-01-17T14:52:15.662Z,4.04
2023-01-17T14:57:28.831Z,3.93
2023-01-17T15:02:20.594Z,2.64
2023-01-17T15:07:17.017Z,3.13
2023-01-17T15:12:11.285Z,2.93
2023-01-17T15:17:29.648Z,3.24
2023-01-17T15:22:22.045Z,2.36
2023-01-17T15:27:15.173Z,2.87
2023-01-17T15:32:08.038Z,3.32
2023-01-17T15:37:05.599Z,2.96
2023-01-17T15:42:03.418Z,2.90
2023-01-17T15:46:55.260Z,0.00
2023-01-17T15:51:54.838Z,2.93
2023-01-17T15:56:46.403Z,2.37
2023-01-17T16:01:38.159Z,2.11
2023-01-17T16:06:45.329Z,2.56
2023-01-17T16:11:37.034Z,1.62
2023-01-17T16:16:28.680Z,2.10
2023-01-17T16:21:26.217Z,2.16
2023-01-17T16:26:18.540Z,2.08
2023-01-17T16:31:10.454Z,2.02
2023-01-17T16:36:02.254Z,1.43
2023-01-17T16:40:54.415Z,1.63
2023-01-17T16:45:53.159Z,1.16
2023-01-17T16:50:52.264Z,1.70
2023-01-17T16:55:44.560Z,1.13
2023-01-17T17:00:36.226Z,1.46
2023-01-17T17:05:27.968Z,0.08
2023-01-17T17:10:21.902Z,1.47
2023-01-17T17:15:14.254Z,0.06
2023-01-17T17:20:07.304Z,1.31
2023-01-17T17:24:59.079Z,1.20
2023-01-17T17:29:50.690Z,1.12
2023-01-17T17:34:42.246Z,0.78
2023-01-17T17:39:33.798Z,0.66
2023-01-17T17:44:25.726Z,0.95
2023-01-17T17:49:17.343Z,0.87
2023-01-17T17:54:11.843Z,0.84
2023-01-17T17:59:05.614Z,0.75
2023-01-17T18:04:00.768Z,0.14
2023-01-17T18:08:52.860Z,-0.41
2023-01-17T18:13:47.800Z,0.71
2023-01-17T18:18:41.954Z,0.66
2023-01-17T18:23:40.903Z,0.45
2023-01-17T18:28:32.688Z,-0.03
2023-01-17T18:33:24.428Z,-0.34
2023-01-17T18:38:15.959Z,0.48
2023-01-17T18:43:07.533Z,0.47
2023-01-17T18:47:59.895Z,-0.08
2023-01-17T18:52:53.153Z,-0.57
2023-01-17T18:57:44.981Z,-0.62
2023-01-17T19:02:36.578Z,0.30
2023-01-17T19:07:29.644Z,0.26
2023-01-17T19:12:21.247Z,-0.03
2023-01-17T19:17:12.904Z,0.24
2023-01-17T19:22:04.555Z,-0.10
2023-01-17T19:26:56.424Z,-0.12
2023-01-17T19:31:48.279Z,-0.04
2023-01-17T19:36:39.988Z,-0.06
2023-01-17T19:41:33.123Z,-0.13
2023-01-17T19:46:27.295Z,-0.69
2023-01-17T19:51:19.298Z,-0.93
2023-01-17T19:56:17.370Z,-0.41
2023-01-17T20:01:10.366Z,-0.29
2023-01-17T20:06:01.986Z,-0.61
2023-01-17T20:10:53.618Z,-1.01
2023-01-17T20:15:45.177Z,-1.21
2023-01-17T20:20:41.365Z,-0.82
2023-01-17T20:25:37.628Z,-0.67
2023-01-17T20:30:31.789Z,-1.14
2023-01-17T20:35:23.373Z,-0.94
2023-01-17T20:40:14.964Z,-1.58
2023-01-17T20:45:07.477Z,-0.49
2023-01-17T20:49:59.072Z,-0.70
2023-01-17T20:54:51.742Z,-1.15
2023-01-17T20:59:45.616Z,-1.84
2023-01-17T21:04:37.364Z,-0.63
2023-01-17T21:09:28.921Z,-0.95
2023-01-17T21:14:21.749Z,-0.69
2023-01-17T21:19:14.912Z,-1.83
2023-01-17T21:24:06.738Z,-0.77
2023-01-17T21:29:00.344Z,-0.83
2023-01-17T21:33:55.136Z,-1.15
2023-01-17T21:38:52.157Z,-1.65
2023-01-17T21:43:43.922Z,-0.87
2023-01-17T21:48:35.434Z,-1.10
2023-01-17T21:53:27.672Z,-0.78
2023-01-17T21:58:38.132Z,-1.91
2023-01-17T22:03:29.705Z,-1.44
2023-01-17T22:08:21.623Z,-1.96
2023-01-17T22:13:17.753Z,-1.04
2023-01-17T22:18:09.824Z,-1.12
2023-01-17T22:23:01.384Z,-2.18
2023-01-17T22:27:53.004Z,-1.67
2023-01-17T22:32:44.593Z,-1.12
2023-01-17T22:37:36.183Z,-1.36
2023-01-17T22:42:27.761Z,-2.13
2023-01-17T22:47:19.311Z,-1.74
2023-01-17T22:52:10.801Z,-1.75
2023-01-17T22:57:02.377Z,-1.26
2023-01-17T23:01:53.998Z,-2.73
2023-01-17T23:06:45.678Z,-1.14
2023-01-17T23:11:43.903Z,-1.47
2023-01-17T23:16:55.789Z,-1.79
2023-01-17T23:22:05.979Z,-1.82
2023-01-17T23:27:16.621Z,-0.91
2023-01-17T23:32:08.197Z,-0.90
2023-01-17T23:36:59.732Z,-1.57
2023-01-17T23:42:09.943Z,-1.81
2023-01-17T23:47:01.571Z,-1.41
2023-01-17T23:51:53.249Z,-2.20
2023-01-17T23:56:44.899Z,-2.23
